createdAt,value
2023-01-09T00:01:53.026Z,29.33
2023-01-09T00:06:55.922Z,25.77
2023-01-09T00:11:58.052Z,28.83
2023-01-09T00:17:00.249Z,28.03
2023-01-09T00:22:02.341Z,30.75
2023-01-09T00:27:05.340Z,28.52
2023-01-09T00:32:10.566Z,32.47
2023-01-09T00:37:13.164Z,27.95
2023-01-09T00:42:20.703Z,25.80
2023-01-09T00:47:31.370Z,25.67
2023-01-09T00:52:35.983Z,25.90
2023-01-09T00:57:38.243Z,25.25
2023-01-09T01:02:40.363Z,27.35
2023-01-09T01:07:43.367Z,29.17
2023-01-09T01:12:46.940Z,23.40
2023-01-09T01:17:49.147Z,25.40
2023-01-09T01:22:51.506Z,27.33
2023-01-09T01:27:53.608Z,23.95
2023-01-09T01:32:55.709Z,25.30
2023-01-09T01:37:57.785Z,21.27
2023-01-09T01:43:00.098Z,25.55
2023-01-09T01:48:15.677Z,25.88
2023-01-09T01:53:24.230Z,21.52
2023-01-09T01:58:27.857Z,20.13
2023-01-09T02:03:30.083Z,22.27
2023-01-09T02:08:32.542Z,22.37
2023-01-09T02:13:38.859Z,21.73
2023-01-09T02:18:54.085Z,21.48
2023-01-09T02:24:36.727Z,23.13
2023-01-09T02:30:16.293Z,22.95
2023-01-09T02:35:48.825Z,21.37
2023-01-09T02:40:59.021Z,22.52
2023-01-09T02:46:01.356Z,20.12
2023-01-09T02:51:13.643Z,21.37
2023-01-09T02:56:36.723Z,19.92
2023-01-09T03:01:49.903Z,22.75
2023-01-09T03:07:08.034Z,21.45
2023-01-09T03:12:25.247Z,20.35
2023-01-09T03:17:36.399Z,22.43
2023-01-09T03:22:40.595Z,21.10
2023-01-09T03:27:42.660Z,20.60
2023-01-09T03:32:44.731Z,22.65
2023-01-09T03:37:46.990Z,23.15
2023-01-09T03:42:49.168Z,20.97
2023-01-09T03:47:52.973Z,21.23
2023-01-09T03:52:55.181Z,23.15
2023-01-09T03:57:57.335Z,23.10
2023-01-09T04:02:59.450Z,22.67
2023-01-09T04:08:02.055Z,21.93
2023-01-09T04:13:04.121Z,23.85
2023-01-09T04:18:06.277Z,22.60
2023-01-09T04:23:08.738Z,22.98
2023-01-09T04:28:10.856Z,22.23
2023-01-09T04:33:12.948Z,20.57
2023-01-09T04:38:15.183Z,23.65
2023-01-09T04:43:17.423Z,22.80
2023-01-09T04:48:19.528Z,22.95
2023-01-09T04:53:21.601Z,22.25
2023-01-09T04:58:23.684Z,23.73
2023-01-09T05:03:25.764Z,23.17
2023-01-09T05:08:27.889Z,23.33
2023-01-09T05:13:30.419Z,23.70
2023-01-09T05:18:32.575Z,23.65
2023-01-09T05:23:34.679Z,24.57
2023-01-09T05:28:36.843Z,22.37
2023-01-09T05:33:38.943Z,23.12
2023-01-09T05:38:41.573Z,23.95
2023-01-09T05:43:43.703Z,22.30
2023-01-09T05:48:45.813Z,27.20
2023-01-09T05:53:48.340Z,38.85
2023-01-09T05:58:50.587Z,33.58
2023-01-09T06:03:52.712Z,23.40
2023-01-09T06:08:54.885Z,22.85
2023-01-09T06:13:57.096Z,24.90
2023-01-09T06:18:59.403Z,24.40
2023-01-09T06:24:01.553Z,25.40
2023-01-09T06:29:03.800Z,22.92
2023-01-09T06:34:05.935Z,23.10
2023-01-09T06:39:08.575Z,22.63
2023-01-09T06:44:10.756Z,23.87
2023-01-09T06:49:12.840Z,22.65
2023-01-09T06:54:14.925Z,21.17
2023-01-09T06:59:17.053Z,23.10
2023-01-09T07:04:21.833Z,22.37
2023-01-09T07:09:24.184Z,22.98
2023-01-09T07:14:26.336Z,24.63
2023-01-09T07:19:28.466Z,22.73
2023-01-09T07:24:30.580Z,24.00
2023-01-09T07:29:32.698Z,25.20
2023-01-09T07:34:34.887Z,25.77
2023-01-09T07:39:36.968Z,24.20
2023-01-09T07:44:39.035Z,23.38
2023-01-09T07:49:41.152Z,22.02
2023-01-09T07:54:43.252Z,21.27
2023-01-09T07:59:45.381Z,20.67
2023-01-09T08:04:47.490Z,20.90
2023-01-09T08:09:49.557Z,22.60
2023-01-09T08:14:52.030Z,20.90
2023-01-09T08:19:54.092Z,23.37
2023-01-09T08:24:56.281Z,22.92
2023-01-09T08:29:58.534Z,22.65
2023-01-09T08:35:00.817Z,20.23
2023-01-09T08:40:03.059Z,21.85
2023-01-09T08:45:24.118Z,23.00
2023-01-09T08:50:26.208Z,23.67
2023-01-09T08:55:28.341Z,22.85
2023-01-09T09:00:30.545Z,22.25
2023-01-09T09:05:33.047Z,25.55
2023-01-09T09:10:36.700Z,26.87
2023-01-09T09:15:39.131Z,26.75
2023-01-09T09:20:41.317Z,26.98
2023-01-09T09:25:43.971Z,28.90
2023-01-09T09:30:46.075Z,27.95
2023-01-09T09:35:48.176Z,28.73
2023-01-09T09:41:43.622Z,23.98
2023-01-09T09:47:18.460Z,29.83
2023-01-09T09:52:43.945Z,27.33
2023-01-09T09:57:47.222Z,31.02
2023-01-09T10:02:58.388Z,36.47
2023-01-09T10:08:16.294Z,28.45
2023-01-09T10:13:45.738Z,30.27
2023-01-09T10:18:47.979Z,33.53
2023-01-09T10:24:13.098Z,33.17
2023-01-09T10:29:49.805Z,33.20
2023-01-09T10:35:19.643Z,39.75
2023-01-09T10:40:37.113Z,37.90
2023-01-09T10:45:54.463Z,39.15
2023-01-09T10:50:57.414Z,40.05
2023-01-09T10:56:22.600Z,40.83
2023-01-09T11:01:28.418Z,39.83
2023-01-09T11:06:57.160Z,41.00
2023-01-09T11:11:59.278Z,43.30
2023-01-09T11:17:04.026Z,41.05
2023-01-09T11:22:09.407Z,39.90
2023-01-09T11:27:14.569Z,37.80
2023-01-09T11:32:24.368Z,40.65
2023-01-09T11:37:29.688Z,37.25
2023-01-09T11:42:50.494Z,36.55
2023-01-09T11:47:52.687Z,39.87
2023-01-09T11:53:15.087Z,37.22
2023-01-09T11:58:22.821Z,40.22
2023-01-09T12:03:40.149Z,42.90
2023-01-09T12:08:57.258Z,41.97
2023-01-09T12:13:59.256Z,41.23
2023-01-09T12:19:11.383Z,42.47
2023-01-09T12:24:13.436Z,44.58
2023-01-09T12:29:37.988Z,43.25
2023-01-09T12:34:49.099Z,48.55
2023-01-09T12:40:12.705Z,39.70
2023-01-09T12:45:24.152Z,40.72
2023-01-09T12:50:26.295Z,38.72
2023-01-09T12:55:34.367Z,42.70
2023-01-09T13:00:49.193Z,41.22
2023-01-09T13:05:53.539Z,40.20
2023-01-09T13:11:19.578Z,40.38
2023-01-09T13:16:28.853Z,37.53
2023-01-09T13:21:31.611Z,37.17
2023-01-09T13:26:44.190Z,40.85
2023-01-09T13:32:06.094Z,42.77
2023-01-09T13:37:22.586Z,41.65
2023-01-09T13:42:46.050Z,42.97
2023-01-09T13:48:11.050Z,40.75
2023-01-09T13:53:19.406Z,38.53
2023-01-09T13:58:22.827Z,38.90
2023-01-09T14:03:32.864Z,35.80
2023-01-09T14:08:35.293Z,37.45
2023-01-09T14:13:37.364Z,39.65
2023-01-09T14:18:46.383Z,40.10
2023-01-09T14:24:07.203Z,44.83
2023-01-09T14:29:28.539Z,44.80
2023-01-09T14:34:37.302Z,43.50
2023-01-09T14:39:43.150Z,46.90
2023-01-09T14:44:55.436Z,44.03
2023-01-09T14:50:08.559Z,41.23
2023-01-09T14:55:35.611Z,46.05
2023-01-09T15:00:46.137Z,44.55
2023-01-09T15:05:51.555Z,44.88
2023-01-09T15:10:56.083Z,47.10
2023-01-09T15:16:00.145Z,48.07
2023-01-09T15:21:03.861Z,49.67
2023-01-09T15:26:25.257Z,44.78
2023-01-09T15:31:28.646Z,40.25
2023-01-09T15:36:31.118Z,44.95
2023-01-09T15:41:51.867Z,43.13
2023-01-09T15:46:58.820Z,46.47
2023-01-09T15:52:01.626Z,46.70
2023-01-09T15:57:25.728Z,46.45
2023-01-09T16:02:46.499Z,50.53
2023-01-09T16:07:50.924Z,54.00
2023-01-09T16:12:54.719Z,54.95
2023-01-09T16:18:18.159Z,49.38
2023-01-09T16:23:30.229Z,65.12
2023-01-09T16:28:32.557Z,60.15
2023-01-09T16:33:35.388Z,56.53
2023-01-09T16:38:37.541Z,51.37
2023-01-09T16:43:39.628Z,47.58
2023-01-09T16:48:42.285Z,53.78
2023-01-09T16:53:45.144Z,49.15
2023-01-09T16:58:47.203Z,48.33
2023-01-09T17:03:49.927Z,47.47
2023-01-09T17:08:52.094Z,48.70
2023-01-09T17:13:54.247Z,45.88
2023-01-09T17:18:56.504Z,49.60
2023-01-09T17:24:18.062Z,52.03
2023-01-09T17:29:20.671Z,51.53
2023-01-09T17:34:22.811Z,54.08
2023-01-09T17:39:24.952Z,53.55
2023-01-09T17:44:27.111Z,50.83
2023-01-09T17:49:29.750Z,60.10
2023-01-09T17:54:32.585Z,56.03
2023-01-09T17:59:35.239Z,55.28
2023-01-09T18:04:39.199Z,53.78
2023-01-09T18:09:42.009Z,56.17
2023-01-09T18:14:44.062Z,55.80
2023-01-09T18:19:46.555Z,60.30
2023-01-09T18:24:48.718Z,55.05
2023-01-09T18:29:51.092Z,59.78
2023-01-09T18:34:53.197Z,58.58
2023-01-09T18:39:55.385Z,58.43
2023-01-09T18:44:57.496Z,56.08
2023-01-09T18:50:00.076Z,55.95
2023-01-09T18:55:02.185Z,57.33
2023-01-09T19:00:05.330Z,50.53
2023-01-09T19:05:08.930Z,46.00
2023-01-09T19:10:13.426Z,39.75
2023-01-09T19:15:18.898Z,45.03
2023-01-09T19:20:21.029Z,44.88
2023-01-09T19:25:23.463Z,44.08
2023-01-09T19:30:26.601Z,40.27
2023-01-09T19:35:28.914Z,38.58
2023-01-09T19:40:31.177Z,41.37
2023-01-09T19:45:33.350Z,39.67
2023-01-09T19:50:35.471Z,37.22
2023-01-09T19:55:38.928Z,34.07
2023-01-09T20:00:41.030Z,36.30
2023-01-09T20:05:43.132Z,36.03
2023-01-09T20:10:45.282Z,33.90
2023-01-09T20:15:47.736Z,31.52
2023-01-09T20:20:50.408Z,31.20
2023-01-09T20:25:54.599Z,32.55
2023-01-09T20:30:56.950Z,29.98
2023-01-09T20:36:02.864Z,32.13
2023-01-09T20:41:25.909Z,32.45
2023-01-09T20:46:30.635Z,29.53
2023-01-09T20:51:34.728Z,29.42
2023-01-09T20:56:36.959Z,30.60
2023-01-09T21:01:40.336Z,33.03
2023-01-09T21:06:42.785Z,28.30
2023-01-09T21:11:45.012Z,30.13
2023-01-09T21:16:54.528Z,27.70
2023-01-09T21:21:57.355Z,31.33
2023-01-09T21:26:59.521Z,33.58
2023-01-09T21:32:01.657Z,37.72
2023-01-09T21:37:03.932Z,35.63
2023-01-09T21:42:24.605Z,30.98
2023-01-09T21:47:26.769Z,32.92
2023-01-09T21:52:31.966Z,32.10
2023-01-09T21:57:34.072Z,31.90
2023-01-09T22:02:36.957Z,33.17
2023-01-09T22:07:39.141Z,30.20
2023-01-09T22:13:01.216Z,29.30
2023-01-09T22:18:03.378Z,29.37
2023-01-09T22:23:05.673Z,30.62
2023-01-09T22:28:10.256Z,29.37
2023-01-09T22:33:12.867Z,31.05
2023-01-09T22:38:15.015Z,39.58
2023-01-09T22:43:17.328Z,29.87
2023-01-09T22:48:19.404Z,33.00
2023-01-09T22:53:21.486Z,29.07
2023-01-09T22:58:25.480Z,31.20
2023-01-09T23:03:28.426Z,26.90
2023-01-09T23:08:31.285Z,23.38
2023-01-09T23:13:33.602Z,23.33
2023-01-09T23:18:35.810Z,22.83
2023-01-09T23:23:37.928Z,21.05
2023-01-09T23:28:40.534Z,21.67
2023-01-09T23:33:42.679Z,22.33
2023-01-09T23:38:44.866Z,22.67
2023-01-09T23:43:46.953Z,28.47
2023-01-09T23:48:49.019Z,31.20
2023-01-09T23:53:51.080Z,25.33
2023-01-09T23:58:53.338Z,27.10
